Terminal Aerodrome Forecast
Issued by NWS

Home | Current Version | Previous Version | Text Only | Print | Product List | Glossary Off
Versions: 1 2 3 4 5 6 7 8 9 10 11 12 13 14 15 16 17 18 19 20 21 22 23 24 25 26 27 28 29 30 31

000
FTUS45 KGGW 110917 AAA
TAFOLF
TAF AMD
KOLF 110917Z 1109/1206 07007KT 4SM -SN SCT020 OVC040
     FM111600 08006KT P6SM OVC010
     FM112100 31007KT P6SM OVC015=

USA.gov is the U.S. government's official web portal to all federal, state and local government web resources and services.